sensor_id;sensor_type;location;lat;lon;timestamp;pressure;altitude;pressure_sealevel;temperature;humidity
76448;BME280;65284;51.040;13.722;2024-01-30T00:00:33;101347.47;;;1.72;93.32
76448;BME280;65284;51.040;13.722;2024-01-30T00:02:59;101354.34;;;1.75;93.20
76448;BME280;65284;51.040;13.722;2024-01-30T00:05:25;101353.63;;;1.71;93.46
76448;BME280;65284;51.040;13.722;2024-01-30T00:07:52;101345.16;;;1.66;93.98
76448;BME280;65284;51.040;13.722;2024-01-30T00:10:19;101341.59;;;1.67;93.78
76448;BME280;65284;51.040;13.722;2024-01-30T00:12:45;101339.63;;;1.72;93.43
76448;BME280;65284;51.040;13.722;2024-01-30T00:15:12;101338.91;;;1.69;93.61
76448;BME280;65284;51.040;13.722;2024-01-30T00:17:38;101335.28;;;1.71;93.27
76448;BME280;65284;51.040;13.722;2024-01-30T00:20:05;101340.53;;;1.71;93.19
76448;BME280;65284;51.040;13.722;2024-01-30T00:22:32;101330.69;;;1.76;93.04
76448;BME280;65284;51.040;13.722;2024-01-30T00:25:00;101330.03;;;1.71;93.07
76448;BME280;65284;51.040;13.722;2024-01-30T00:27:26;101332.66;;;1.71;93.01
76448;BME280;65284;51.040;13.722;2024-01-30T00:29:54;101340.59;;;1.70;93.14
76448;BME280;65284;51.040;13.722;2024-01-30T00:32:20;101334.66;;;1.66;92.96
76448;BME280;65284;51.040;13.722;2024-01-30T00:34:47;101323.22;;;1.69;92.87
76448;BME280;65284;51.040;13.722;2024-01-30T00:37:14;101331.13;;;1.67;93.15
76448;BME280;65284;51.040;13.722;2024-01-30T00:39:40;101341.44;;;1.70;92.99
76448;BME280;65284;51.040;13.722;2024-01-30T00:42:07;101338.97;;;1.67;92.96
76448;BME280;65284;51.040;13.722;2024-01-30T00:44:36;101333.88;;;1.64;93.14
76448;BME280;65284;51.040;13.722;2024-01-30T00:47:05;101334.81;;;1.63;93.48
76448;BME280;65284;51.040;13.722;2024-01-30T00:49:32;101331.31;;;1.63;93.20
76448;BME280;65284;51.040;13.722;2024-01-30T00:51:58;101334.06;;;1.59;93.30
76448;BME280;65284;51.040;13.722;2024-01-30T00:54:25;101340.19;;;1.60;93.37
76448;BME280;65284;51.040;13.722;2024-01-30T00:56:52;101334.97;;;1.60;93.31
76448;BME280;65284;51.040;13.722;2024-01-30T00:59:18;101329.56;;;1.63;92.75
76448;BME280;65284;51.040;13.722;2024-01-30T01:01:45;101336.63;;;1.61;93.22
76448;BME280;65284;51.040;13.722;2024-01-30T01:04:12;101340.34;;;1.57;93.19
76448;BME280;65284;51.040;13.722;2024-01-30T01:06:38;101343.72;;;1.59;93.27
76448;BME280;65284;51.040;13.722;2024-01-30T01:09:05;101335.09;;;1.57;93.05
76448;BME280;65284;51.040;13.722;2024-01-30T01:11:31;101342.16;;;1.55;92.90
76448;BME280;65284;51.040;13.722;2024-01-30T01:13:58;101329.22;;;1.52;93.08
76448;BME280;65284;51.040;13.722;2024-01-30T01:16:24;101335.34;;;1.51;92.78
76448;BME280;65284;51.040;13.722;2024-01-30T01:18:51;101342.03;;;1.58;92.68
76448;BME280;65284;51.040;13.722;2024-01-30T01:21:18;101339.47;;;1.56;92.41
76448;BME280;65284;51.040;13.722;2024-01-30T01:23:44;101326.44;;;1.55;92.22
76448;BME280;65284;51.040;13.722;2024-01-30T01:26:11;101330.84;;;1.54;92.52
76448;BME280;65284;51.040;13.722;2024-01-30T01:28:40;101321.38;;;1.52;92.46
76448;BME280;65284;51.040;13.722;2024-01-30T01:31:07;101334.31;;;1.55;92.52
76448;BME280;65284;51.040;13.722;2024-01-30T01:33:34;101324.78;;;1.54;92.38
76448;BME280;65284;51.040;13.722;2024-01-30T01:36:00;101343.19;;;1.51;92.38
76448;BME280;65284;51.040;13.722;2024-01-30T01:38:30;101325.75;;;1.51;92.36
76448;BME280;65284;51.040;13.722;2024-01-30T01:40:56;101337.06;;;1.52;92.13
76448;BME280;65284;51.040;13.722;2024-01-30T01:43:22;101330.13;;;1.51;92.42
76448;BME280;65284;51.040;13.722;2024-01-30T01:45:50;101328.38;;;1.51;92.43
76448;BME280;65284;51.040;13.722;2024-01-30T01:48:16;101337.22;;;1.49;92.47
76448;BME280;65284;51.040;13.722;2024-01-30T01:50:43;101324.19;;;1.47;92.62
76448;BME280;65284;51.040;13.722;2024-01-30T01:53:10;101322.16;;;1.54;92.27
76448;BME280;65284;51.040;13.722;2024-01-30T01:55:37;101321.50;;;1.49;92.61
76448;BME280;65284;51.040;13.722;2024-01-30T01:58:04;101325.81;;;1.50;92.34
76448;BME280;65284;51.040;13.722;2024-01-30T02:00:31;101336.41;;;1.47;92.59
76448;BME280;65284;51.040;13.722;2024-01-30T02:02:58;101325.03;;;1.48;92.54
76448;BME280;65284;51.040;13.722;2024-01-30T02:05:26;101323.19;;;1.50;92.66
76448;BME280;65284;51.040;13.722;2024-01-30T02:07:52;101324.13;;;1.49;92.40
76448;BME280;65284;51.040;13.722;2024-01-30T02:10:19;101327.72;;;1.46;92.47
76448;BME280;65284;51.040;13.722;2024-01-30T02:12:46;101317.97;;;1.50;92.74
76448;BME280;65284;51.040;13.722;2024-01-30T02:15:13;101316.41;;;1.46;92.81
76448;BME280;65284;51.040;13.722;2024-01-30T02:17:40;101307.78;;;1.44;92.77
76448;BME280;65284;51.040;13.722;2024-01-30T02:20:07;101320.94;;;1.42;92.87
76448;BME280;65284;51.040;13.722;2024-01-30T02:22:36;101306.84;;;1.45;92.83
76448;BME280;65284;51.040;13.722;2024-01-30T02:25:04;101323.47;;;1.44;92.70
76448;BME280;65284;51.040;13.722;2024-01-30T02:27:30;101310.38;;;1.44;92.77
76448;BME280;65284;51.040;13.722;2024-01-30T02:29:57;101318.38;;;1.41;92.80
76448;BME280;65284;51.040;13.722;2024-01-30T02:32:23;101312.22;;;1.42;93.08
76448;BME280;65284;51.040;13.722;2024-01-30T02:34:50;101327.16;;;1.40;93.12
76448;BME280;65284;51.040;13.722;2024-01-30T02:37:16;101315.13;;;1.35;93.31
76448;BME280;65284;51.040;13.722;2024-01-30T02:39:43;101315.13;;;1.35;93.10
76448;BME280;65284;51.040;13.722;2024-01-30T02:42:10;101315.13;;;1.35;93.14
76448;BME280;65284;51.040;13.722;2024-01-30T02:44:36;101305.56;;;1.34;93.16
76448;BME280;65284;51.040;13.722;2024-01-30T02:47:03;101304.78;;;1.32;93.26
76448;BME280;65284;51.040;13.722;2024-01-30T02:49:29;101307.47;;;1.31;93.51
76448;BME280;65284;51.040;13.722;2024-01-30T02:51:56;101309.25;;;1.30;93.40
76448;BME280;65284;51.040;13.722;2024-01-30T02:54:23;101300.47;;;1.31;93.34
76448;BME280;65284;51.040;13.722;2024-01-30T02:56:49;101298.00;;;1.28;93.42
76448;BME280;65284;51.040;13.722;2024-01-30T02:59:16;101304.72;;;1.34;93.48
76448;BME280;65284;51.040;13.722;2024-01-30T03:01:43;101303.25;;;1.28;93.22
76448;BME280;65284;51.040;13.722;2024-01-30T03:04:10;101304.94;;;1.29;93.38
76448;BME280;65284;51.040;13.722;2024-01-30T03:06:37;101299.97;;;1.23;93.86
76448;BME280;65284;51.040;13.722;2024-01-30T03:09:04;101306.03;;;1.24;93.33
76448;BME280;65284;51.040;13.722;2024-01-30T03:11:31;101299.97;;;1.23;93.81
76448;BME280;65284;51.040;13.722;2024-01-30T03:13:58;101298.41;;;1.19;94.02
76448;BME280;65284;51.040;13.722;2024-01-30T03:16:24;101298.28;;;1.22;94.03
76448;BME280;65284;51.040;13.722;2024-01-30T03:18:51;101304.41;;;1.21;93.84
76448;BME280;65284;51.040;13.722;2024-01-30T03:21:17;101299.19;;;1.21;93.84
76448;BME280;65284;51.040;13.722;2024-01-30T03:23:44;101296.56;;;1.21;93.99
76448;BME280;65284;51.040;13.722;2024-01-30T03:26:10;101293.19;;;1.19;94.13
76448;BME280;65284;51.040;13.722;2024-01-30T03:28:38;101292.41;;;1.17;94.36
76448;BME280;65284;51.040;13.722;2024-01-30T03:31:05;101292.34;;;1.19;94.43
76448;BME280;65284;51.040;13.722;2024-01-30T03:33:31;101295.00;;;1.17;94.36
76448;BME280;65284;51.040;13.722;2024-01-30T03:36:03;101289.78;;;1.17;94.44
76448;BME280;65284;51.040;13.722;2024-01-30T03:38:29;101297.63;;;1.17;94.21
76448;BME280;65284;51.040;13.722;2024-01-30T03:40:56;101301.03;;;1.19;94.18
76448;BME280;65284;51.040;13.722;2024-01-30T03:43:22;101296.56;;;1.21;94.13
76448;BME280;65284;51.040;13.722;2024-01-30T03:45:49;101289.63;;;1.20;93.85
76448;BME280;65284;51.040;13.722;2024-01-30T03:48:15;101303.78;;;1.16;93.71
76448;BME280;65284;51.040;13.722;2024-01-30T03:50:42;101298.41;;;1.19;93.95
76448;BME280;65284;51.040;13.722;2024-01-30T03:53:09;101291.75;;;1.12;94.25
76448;BME280;65284;51.040;13.722;2024-01-30T03:55:35;101291.75;;;1.12;94.30
76448;BME280;65284;51.040;13.722;2024-01-30T03:58:02;101296.97;;;1.12;94.18
76448;BME280;65284;51.040;13.722;2024-01-30T04:00:29;101300.38;;;1.14;94.42
76448;BME280;65284;51.040;13.722;2024-01-30T04:02:55;101293.31;;;1.16;93.99
76448;BME280;65284;51.040;13.722;2024-01-30T04:05:22;101287.31;;;1.14;94.13
76448;BME280;65284;51.040;13.722;2024-01-30T04:07:48;101284.78;;;1.12;94.26
76448;BME280;65284;51.040;13.722;2024-01-30T04:10:16;101295.28;;;1.11;94.36
76448;BME280;65284;51.040;13.722;2024-01-30T04:12:42;101296.13;;;1.11;94.18
76448;BME280;65284;51.040;13.722;2024-01-30T04:15:09;101286.66;;;1.09;94.56
76448;BME280;65284;51.040;13.722;2024-01-30T04:17:35;101284.13;;;1.07;94.69
76448;BME280;65284;51.040;13.722;2024-01-30T04:20:02;101285.94;;;1.05;94.81
76448;BME280;65284;51.040;13.722;2024-01-30T04:22:29;101292.03;;;1.06;94.56
76448;BME280;65284;51.040;13.722;2024-01-30T04:24:56;101285.94;;;1.05;94.90
76448;BME280;65284;51.040;13.722;2024-01-30T04:27:23;101284.25;;;1.04;94.85
76448;BME280;65284;51.040;13.722;2024-01-30T04:29:49;101287.06;;;1.00;95.09
76448;BME280;65284;51.040;13.722;2024-01-30T04:32:16;101288.66;;;1.04;94.89
76448;BME280;65284;51.040;13.722;2024-01-30T04:34:42;101282.53;;;1.03;95.42
76448;BME280;65284;51.040;13.722;2024-01-30T04:37:10;101285.16;;;1.03;94.96
76448;BME280;65284;51.040;13.722;2024-01-30T04:39:37;101287.78;;;1.03;95.43
76448;BME280;65284;51.040;13.722;2024-01-30T04:42:03;101289.53;;;1.03;94.63
76448;BME280;65284;51.040;13.722;2024-01-30T04:44:34;101286.94;;;1.03;95.09
76448;BME280;65284;51.040;13.722;2024-01-30T04:47:00;101287.06;;;1.00;95.19
76448;BME280;65284;51.040;13.722;2024-01-30T04:49:27;101281.13;;;0.96;95.62
76448;BME280;65284;51.040;13.722;2024-01-30T04:51:55;101281.97;;;0.97;95.59
76448;BME280;65284;51.040;13.722;2024-01-30T04:54:23;101275.75;;;0.99;95.50
76448;BME280;65284;51.040;13.722;2024-01-30T04:56:49;101285.44;;;0.97;95.61
76448;BME280;65284;51.040;13.722;2024-01-30T04:59:16;101273.34;;;0.95;95.78
76448;BME280;65284;51.040;13.722;2024-01-30T05:01:42;101278.69;;;0.91;95.71
76448;BME280;65284;51.040;13.722;2024-01-30T05:04:09;101282.25;;;0.90;96.15
76448;BME280;65284;51.040;13.722;2024-01-30T05:06:42;101269.25;;;0.89;95.95
76448;BME280;65284;51.040;13.722;2024-01-30T05:09:08;101277.66;;;0.96;95.92
76448;BME280;65284;51.040;13.722;2024-01-30T05:11:40;101279.56;;;0.92;96.13
76448;BME280;65284;51.040;13.722;2024-01-30T05:14:07;101287.34;;;0.94;95.91
76448;BME280;65284;51.040;13.722;2024-01-30T05:16:34;101277.00;;;0.90;96.11
76448;BME280;65284;51.040;13.722;2024-01-30T05:19:02;101273.59;;;0.88;96.43
76448;BME280;65284;51.040;13.722;2024-01-30T05:21:29;101281.41;;;0.90;96.46
76448;BME280;65284;51.040;13.722;2024-01-30T05:23:55;101270.94;;;0.90;96.47
76448;BME280;65284;51.040;13.722;2024-01-30T05:26:22;101271.00;;;0.88;96.59
76448;BME280;65284;51.040;13.722;2024-01-30T05:28:49;101268.31;;;0.90;96.83
76448;BME280;65284;51.040;13.722;2024-01-30T05:31:15;101275.31;;;0.89;96.43
76448;BME280;65284;51.040;13.722;2024-01-30T05:33:42;101269.13;;;0.92;96.65
76448;BME280;65284;51.040;13.722;2024-01-30T05:36:11;101276.88;;;0.94;96.49
76448;BME280;65284;51.040;13.722;2024-01-30T05:38:39;101273.34;;;0.95;96.43
76448;BME280;65284;51.040;13.722;2024-01-30T05:41:06;101264.59;;;0.96;96.66
76448;BME280;65284;51.040;13.722;2024-01-30T05:43:32;101271.47;;;0.98;96.45
76448;BME280;65284;51.040;13.722;2024-01-30T05:45:59;101272.34;;;0.97;96.34
76448;BME280;65284;51.040;13.722;2024-01-30T05:48:25;101281.97;;;0.97;96.34
76448;BME280;65284;51.040;13.722;2024-01-30T05:50:52;101268.75;;;1.00;96.29
76448;BME280;65284;51.040;13.722;2024-01-30T05:53:18;101273.34;;;0.95;96.62
76448;BME280;65284;51.040;13.722;2024-01-30T05:55:45;101276.75;;;0.97;96.69
76448;BME280;65284;51.040;13.722;2024-01-30T05:58:12;101280.16;;;0.99;96.68
76448;BME280;65284;51.040;13.722;2024-01-30T06:00:38;101271.38;;;1.00;96.45
76448;BME280;65284;51.040;13.722;2024-01-30T06:03:05;101273.34;;;0.95;96.47
76448;BME280;65284;51.040;13.722;2024-01-30T06:05:31;101274.06;;;0.98;96.46
76448;BME280;65284;51.040;13.722;2024-01-30T06:07:58;101266.28;;;0.97;96.31
76448;BME280;65284;51.040;13.722;2024-01-30T06:10:25;101272.44;;;0.96;96.36
76448;BME280;65284;51.040;13.722;2024-01-30T06:12:51;101270.72;;;0.95;96.80
76448;BME280;65284;51.040;13.722;2024-01-30T06:15:18;101278.47;;;0.98;96.89
76448;BME280;65284;51.040;13.722;2024-01-30T06:17:44;101269.81;;;0.96;96.64
76448;BME280;65284;51.040;13.722;2024-01-30T06:20:11;101271.66;;;0.94;96.64
76448;BME280;65284;51.040;13.722;2024-01-30T06:22:38;101274.91;;;0.99;96.76
76448;BME280;65284;51.040;13.722;2024-01-30T06:25:04;101276.56;;;1.01;96.61
76448;BME280;65284;51.040;13.722;2024-01-30T06:27:31;101268.25;;;0.91;96.71
76448;BME280;65284;51.040;13.722;2024-01-30T06:29:57;101273.09;;;1.01;96.73
76448;BME280;65284;51.040;13.722;2024-01-30T06:32:24;101266.22;;;0.98;96.38
76448;BME280;65284;51.040;13.722;2024-01-30T06:34:51;101269.75;;;0.97;96.63
76448;BME280;65284;51.040;13.722;2024-01-30T06:37:18;101277.81;;;0.93;96.70
76448;BME280;65284;51.040;13.722;2024-01-30T06:39:45;101269.81;;;0.96;96.84
76448;BME280;65284;51.040;13.722;2024-01-30T06:42:11;101268.97;;;0.95;96.57
76448;BME280;65284;51.040;13.722;2024-01-30T06:44:38;101268.00;;;0.98;96.66
76448;BME280;65284;51.040;13.722;2024-01-30T06:47:04;101266.28;;;0.97;96.65
76448;BME280;65284;51.040;13.722;2024-01-30T06:49:31;101267.84;;;1.01;96.46
76448;BME280;65284;51.040;13.722;2024-01-30T06:51:58;101266.78;;;1.05;96.45
76448;BME280;65284;51.040;13.722;2024-01-30T06:54:24;101269.53;;;1.02;96.21
76448;BME280;65284;51.040;13.722;2024-01-30T06:56:51;101267.59;;;1.07;96.22
76448;BME280;65284;51.040;13.722;2024-01-30T06:59:17;101278.03;;;1.07;95.77
76448;BME280;65284;51.040;13.722;2024-01-30T07:01:44;101272.94;;;1.04;96.11
76448;BME280;65284;51.040;13.722;2024-01-30T07:04:10;101271.94;;;1.06;96.11
76448;BME280;65284;51.040;13.722;2024-01-30T07:06:37;101264.75;;;1.11;95.85
76448;BME280;65284;51.040;13.722;2024-01-30T07:09:03;101279.31;;;1.17;95.40
76448;BME280;65284;51.040;13.722;2024-01-30T07:11:31;101274.09;;;1.17;95.49
76448;BME280;65284;51.040;13.722;2024-01-30T07:13:58;101277.50;;;1.19;95.21
76448;BME280;65284;51.040;13.722;2024-01-30T07:16:24;101273.94;;;1.20;95.20
76448;BME280;65284;51.040;13.722;2024-01-30T07:18:51;101274.59;;;1.25;95.13
76448;BME280;65284;51.040;13.722;2024-01-30T07:21:18;101272.81;;;1.26;94.54
76448;BME280;65284;51.040;13.722;2024-01-30T07:23:44;101265.06;;;1.24;94.87
76448;BME280;65284;51.040;13.722;2024-01-30T07:26:11;101271.97;;;1.25;95.04
76448;BME280;65284;51.040;13.722;2024-01-30T07:28:37;101269.88;;;1.33;94.58
76448;BME280;65284;51.040;13.722;2024-01-30T07:31:04;101262.00;;;1.33;94.37
76448;BME280;65284;51.040;13.722;2024-01-30T07:33:31;101266.31;;;1.34;93.99
76448;BME280;65284;51.040;13.722;2024-01-30T07:35:57;101260.66;;;1.44;93.85
76448;BME280;65284;51.040;13.722;2024-01-30T07:38:24;101261.50;;;1.44;93.55
76448;BME280;65284;51.040;13.722;2024-01-30T07:40:51;101262.03;;;1.51;93.49
76448;BME280;65284;51.040;13.722;2024-01-30T07:43:17;101265.31;;;1.56;92.73
76448;BME280;65284;51.040;13.722;2024-01-30T07:45:44;101273.66;;;1.64;92.70
76448;BME280;65284;51.040;13.722;2024-01-30T07:48:10;101264.13;;;1.63;92.20
76448;BME280;65284;51.040;13.722;2024-01-30T07:50:37;101254.41;;;1.65;92.33
76448;BME280;65284;51.040;13.722;2024-01-30T07:53:03;101264.44;;;1.74;92.43
76448;BME280;65284;51.040;13.722;2024-01-30T07:55:30;101260.91;;;1.75;91.89
76448;BME280;65284;51.040;13.722;2024-01-30T07:57:59;101269.41;;;1.80;91.87
76448;BME280;65284;51.040;13.722;2024-01-30T08:00:26;101270.94;;;1.85;91.62
76448;BME280;65284;51.040;13.722;2024-01-30T08:02:53;101267.81;;;1.95;91.42
76448;BME280;65284;51.040;13.722;2024-01-30T08:05:23;101270.66;;;2.08;91.28
76448;BME280;65284;51.040;13.722;2024-01-30T08:07:50;101263.66;;;2.09;90.50
76448;BME280;65284;51.040;13.722;2024-01-30T08:10:17;101260.81;;;2.13;90.44
76448;BME280;65284;51.040;13.722;2024-01-30T08:12:47;101260.50;;;2.19;89.90
76448;BME280;65284;51.040;13.722;2024-01-30T08:15:14;101267.13;;;2.26;89.68
76448;BME280;65284;51.040;13.722;2024-01-30T08:17:40;101263.41;;;2.31;89.48
76448;BME280;65284;51.040;13.722;2024-01-30T08:20:07;101260.53;;;2.37;89.31
76448;BME280;65284;51.040;13.722;2024-01-30T08:22:39;101249.88;;;2.40;88.86
76448;BME280;65284;51.040;13.722;2024-01-30T08:25:09;101253.94;;;2.45;88.20
76448;BME280;65284;51.040;13.722;2024-01-30T08:27:36;101262.34;;;2.52;88.07
76448;BME280;65284;51.040;13.722;2024-01-30T08:30:08;101258.63;;;2.56;87.76
76448;BME280;65284;51.040;13.722;2024-01-30T08:32:35;101267.19;;;2.60;87.58
76448;BME280;65284;51.040;13.722;2024-01-30T08:35:01;101259.00;;;2.66;87.48
76448;BME280;65284;51.040;13.722;2024-01-30T08:37:30;101270.22;;;2.69;87.16
76448;BME280;65284;51.040;13.722;2024-01-30T08:39:56;101262.78;;;2.78;86.74
76448;BME280;65284;51.040;13.722;2024-01-30T08:42:23;101256.44;;;2.82;86.53
76448;BME280;65284;51.040;13.722;2024-01-30T08:44:50;101249.94;;;2.89;86.12
76448;BME280;65284;51.040;13.722;2024-01-30T08:47:17;101254.69;;;2.98;85.38
76448;BME280;65284;51.040;13.722;2024-01-30T08:49:45;101263.19;;;3.03;85.44
76448;BME280;65284;51.040;13.722;2024-01-30T08:52:12;101259.44;;;3.07;85.01
76448;BME280;65284;51.040;13.722;2024-01-30T08:54:38;101262.69;;;3.12;84.86
76448;BME280;65284;51.040;13.722;2024-01-30T08:57:05;101269.47;;;3.16;84.77
76448;BME280;65284;51.040;13.722;2024-01-30T08:59:31;101277.94;;;3.22;84.19
76448;BME280;65284;51.040;13.722;2024-01-30T09:01:58;101270.84;;;3.24;84.28
76448;BME280;65284;51.040;13.722;2024-01-30T09:04:37;101274.06;;;3.29;83.90
76448;BME280;65284;51.040;13.722;2024-01-30T09:07:04;101276.53;;;3.32;83.18
76448;BME280;65284;51.040;13.722;2024-01-30T09:09:35;101284.25;;;3.35;83.52
76448;BME280;65284;51.040;13.722;2024-01-30T09:12:02;101283.41;;;3.34;83.44
76448;BME280;65284;51.040;13.722;2024-01-30T09:14:33;101280.50;;;3.39;82.81
76448;BME280;65284;51.040;13.722;2024-01-30T09:16:59;101295.94;;;3.45;82.62
76448;BME280;65284;51.040;13.722;2024-01-30T09:19:26;101304.41;;;3.50;82.37
76448;BME280;65284;51.040;13.722;2024-01-30T09:21:53;101297.22;;;3.54;82.46
76448;BME280;65284;51.040;13.722;2024-01-30T09:24:19;101299.66;;;3.57;82.13
76448;BME280;65284;51.040;13.722;2024-01-30T09:26:46;101298.41;;;3.64;81.60
76448;BME280;65284;51.040;13.722;2024-01-30T09:29:12;101292.22;;;3.65;81.73
76448;BME280;65284;51.040;13.722;2024-01-30T09:31:39;101270.19;;;3.68;81.72
76448;BME280;65284;51.040;13.722;2024-01-30T09:34:05;101282.03;;;3.75;81.48
76448;BME280;65284;51.040;13.722;2024-01-30T09:36:32;101280.19;;;3.77;81.29
76448;BME280;65284;51.040;13.722;2024-01-30T09:38:59;101285.25;;;3.80;81.05
76448;BME280;65284;51.040;13.722;2024-01-30T09:41:27;101274.47;;;3.84;81.22
76448;BME280;65284;51.040;13.722;2024-01-30T09:43:54;101274.41;;;3.86;80.50
76448;BME280;65284;51.040;13.722;2024-01-30T09:46:22;101256.59;;;3.91;80.22
76448;BME280;65284;51.040;13.722;2024-01-30T09:48:55;101267.97;;;3.92;80.49
76448;BME280;65284;51.040;13.722;2024-01-30T09:51:25;101259.13;;;3.93;80.24
76448;BME280;65284;51.040;13.722;2024-01-30T09:53:53;101256.25;;;3.97;80.18
76448;BME280;65284;51.040;13.722;2024-01-30T09:56:20;101259.63;;;3.99;80.24
76448;BME280;65284;51.040;13.722;2024-01-30T09:58:47;101253.63;;;3.97;79.80
76448;BME280;65284;51.040;13.722;2024-01-30T10:01:15;101251.59;;;4.02;79.38
76448;BME280;65284;51.040;13.722;2024-01-30T10:03:45;101249.44;;;4.09;79.19
76448;BME280;65284;51.040;13.722;2024-01-30T10:06:12;101253.88;;;4.08;79.27
76448;BME280;65284;51.040;13.722;2024-01-30T10:08:39;101250.28;;;4.09;79.06
76448;BME280;65284;51.040;13.722;2024-01-30T10:11:06;101254.53;;;4.12;78.43
76448;BME280;65284;51.040;13.722;2024-01-30T10:13:33;101251.44;;;4.20;78.12
76448;BME280;65284;51.040;13.722;2024-01-30T10:16:00;101245.44;;;4.18;78.17
76448;BME280;65284;51.040;13.722;2024-01-30T10:18:28;101239.91;;;4.22;77.51
76448;BME280;65284;51.040;13.722;2024-01-30T10:20:55;101226.50;;;4.27;77.07
76448;BME280;65284;51.040;13.722;2024-01-30T10:23:21;101233.25;;;4.31;77.19
76448;BME280;65284;51.040;13.722;2024-01-30T10:25:48;101220.09;;;4.31;76.80
76448;BME280;65284;51.040;13.722;2024-01-30T10:28:15;101217.28;;;4.34;76.65
76448;BME280;65284;51.040;13.722;2024-01-30T10:30:41;101217.09;;;4.37;76.30
76448;BME280;65284;51.040;13.722;2024-01-30T10:33:08;101218.63;;;4.41;75.84
76448;BME280;65284;51.040;13.722;2024-01-30T10:35:35;101215.25;;;4.39;75.21
76448;BME280;65284;51.040;13.722;2024-01-30T10:38:01;101222.19;;;4.40;74.87
76448;BME280;65284;51.040;13.722;2024-01-30T10:40:29;101226.69;;;4.52;74.62
76448;BME280;65284;51.040;13.722;2024-01-30T10:42:56;101219.75;;;4.51;74.59
76448;BME280;65284;51.040;13.722;2024-01-30T10:45:25;101220.91;;;4.62;74.26
76448;BME280;65284;51.040;13.722;2024-01-30T10:47:55;101205.31;;;4.59;74.30
76448;BME280;65284;51.040;13.722;2024-01-30T10:50:24;101198.34;;;4.57;74.35
76448;BME280;65284;51.040;13.722;2024-01-30T10:52:53;101205.13;;;4.62;74.55
76448;BME280;65284;51.040;13.722;2024-01-30T10:55:21;101199.97;;;4.74;74.24
76448;BME280;65284;51.040;13.722;2024-01-30T10:57:48;101213.19;;;4.73;74.34
76448;BME280;65284;51.040;13.722;2024-01-30T11:04:23;101190.91;;;4.78;74.61
76448;BME280;65284;51.040;13.722;2024-01-30T11:06:52;101188.22;;;4.80;74.07
76448;BME280;65284;51.040;13.722;2024-01-30T11:09:19;101181.63;;;4.73;74.32
76448;BME280;65284;51.040;13.722;2024-01-30T11:11:56;101200.53;;;4.65;74.72
76448;BME280;65284;51.040;13.722;2024-01-30T11:14:28;101196.69;;;4.71;75.01
76448;BME280;65284;51.040;13.722;2024-01-30T11:16:58;101187.06;;;4.70;74.89
76448;BME280;65284;51.040;13.722;2024-01-30T11:19:26;101161.97;;;4.64;74.78
76448;BME280;65284;51.040;13.722;2024-01-30T11:21:54;101182.38;;;4.61;74.78
76448;BME280;65284;51.040;13.722;2024-01-30T11:24:21;101165.81;;;4.73;73.97
76448;BME280;65284;51.040;13.722;2024-01-30T11:26:56;101168.38;;;4.74;73.83
76448;BME280;65284;51.040;13.722;2024-01-30T11:29:27;101178.78;;;4.76;73.74
76448;BME280;65284;51.040;13.722;2024-01-30T11:31:55;101166.59;;;4.75;74.26
76448;BME280;65284;51.040;13.722;2024-01-30T11:34:22;101166.97;;;4.83;74.20
76448;BME280;65284;51.040;13.722;2024-01-30T11:36:56;101159.44;;;4.91;73.46
76448;BME280;65284;51.040;13.722;2024-01-30T11:39:25;101184.25;;;4.87;73.69
76448;BME280;65284;51.040;13.722;2024-01-30T11:41:53;101182.44;;;4.88;73.94
76448;BME280;65284;51.040;13.722;2024-01-30T11:44:20;101181.53;;;4.89;73.60
76448;BME280;65284;51.040;13.722;2024-01-30T11:46:48;101177.50;;;4.83;73.87
76448;BME280;65284;51.040;13.722;2024-01-30T11:49:16;101171.72;;;4.91;73.08
76448;BME280;65284;51.040;13.722;2024-01-30T11:51:47;101165.09;;;4.85;73.69
76448;BME280;65284;51.040;13.722;2024-01-30T11:54:18;101156.06;;;4.89;73.28
76448;BME280;65284;51.040;13.722;2024-01-30T11:56:45;101160.75;;;4.84;73.66
76448;BME280;65284;51.040;13.722;2024-01-30T11:59:11;101158.31;;;4.81;73.51
76448;BME280;65284;51.040;13.722;2024-01-30T12:01:38;101161.69;;;4.83;74.15
76448;BME280;65284;51.040;13.722;2024-01-30T12:04:05;101162.72;;;4.81;73.98
76448;BME280;65284;51.040;13.722;2024-01-30T12:06:37;101154.91;;;4.79;73.86
76448;BME280;65284;51.040;13.722;2024-01-30T12:09:04;101154.19;;;4.77;73.53
76448;BME280;65284;51.040;13.722;2024-01-30T12:11:31;101168.25;;;4.76;74.24
76448;BME280;65284;51.040;13.722;2024-01-30T12:13:58;101162.81;;;4.79;73.92
76448;BME280;65284;51.040;13.722;2024-01-30T12:16:24;101156.81;;;4.77;73.57
76448;BME280;65284;51.040;13.722;2024-01-30T12:18:59;101140.56;;;4.70;74.00
76448;BME280;65284;51.040;13.722;2024-01-30T12:21:25;101148.16;;;4.75;73.71
76448;BME280;65284;51.040;13.722;2024-01-30T12:23:52;101135.31;;;4.70;73.76
76448;BME280;65284;51.040;13.722;2024-01-30T12:26:19;101135.13;;;4.73;74.00
76448;BME280;65284;51.040;13.722;2024-01-30T12:28:49;101141.22;;;4.74;74.06
76448;BME280;65284;51.040;13.722;2024-01-30T12:31:25;101136.50;;;4.79;73.76
76448;BME280;65284;51.040;13.722;2024-01-30T12:33:52;101134.06;;;4.76;73.74
76448;BME280;65284;51.040;13.722;2024-01-30T12:36:19;101135.75;;;4.77;74.20
76448;BME280;65284;51.040;13.722;2024-01-30T12:38:46;101133.84;;;4.79;74.00
76448;BME280;65284;51.040;13.722;2024-01-30T12:41:12;101136.41;;;4.81;73.66
76448;BME280;65284;51.040;13.722;2024-01-30T12:43:39;101132.19;;;4.78;73.83
76448;BME280;65284;51.040;13.722;2024-01-30T12:46:12;101126.06;;;4.77;73.96
76448;BME280;65284;51.040;13.722;2024-01-30T12:48:39;101119.78;;;4.80;73.57
76448;BME280;65284;51.040;13.722;2024-01-30T12:51:08;101129.28;;;4.83;73.22
76448;BME280;65284;51.040;13.722;2024-01-30T12:53:35;101130.97;;;4.84;73.40